Time;durP1;ratioP1;P1;durP2;ratioP2;P2;SDS_P1;SDS_P2;PMS_P1;PMS_P2;Temp;Humidity;BMP_temperature;BMP_pressure;BME280_temperature;BME280_humidity;BME280_pressure;Samples;Min_cycle;Max_cycle;Signal;HPM_P1;HPM_P2
2023/06/05 00:02:18;;;;;;;1.58;1.35;;;11.50;99.90;;;;;;4973341;28;20133;-74
2023/06/05 00:04:44;;;;;;;1.85;1.38;;;11.50;99.90;;;;;;4968961;28;20042;-74
2023/06/05 00:07:10;;;;;;;1.70;1.40;;;11.50;99.90;;;;;;4969365;28;20394;-74
2023/06/05 00:09:36;;;;;;;3.13;1.40;;;11.50;99.90;;;;;;4986954;28;20107;-74
2023/06/05 00:12:02;;;;;;;2.17;1.42;;;11.50;99.90;;;;;;4969847;28;20042;-74
2023/06/05 00:14:30;;;;;;;1.95;1.33;;;11.50;99.90;;;;;;4968946;28;20064;-74
2023/06/05 00:16:57;;;;;;;3.15;1.60;;;11.60;99.90;;;;;;4969208;28;20065;-75
2023/06/05 00:19:22;;;;;;;3.33;2.00;;;11.60;99.90;;;;;;4952918;28;20068;-73
2023/06/05 00:21:50;;;;;;;2.70;1.90;;;11.60;99.90;;;;;;4951490;28;20055;-74
2023/06/05 00:24:16;;;;;;;3.45;1.88;;;11.60;99.90;;;;;;4953660;28;20132;-74
2023/06/05 00:26:42;;;;;;;2.35;1.48;;;11.60;99.90;;;;;;4969546;28;20050;-74
2023/06/05 00:29:07;;;;;;;2.75;1.40;;;11.50;99.90;;;;;;4969113;28;20069;-74
2023/06/05 00:31:33;;;;;;;3.65;1.60;;;11.60;99.90;;;;;;4969330;28;20118;-74
2023/06/05 00:34:00;;;;;;;3.58;1.45;;;11.60;99.90;;;;;;4969198;28;20050;-74
2023/06/05 00:36:27;;;;;;;4.88;1.90;;;11.50;99.90;;;;;;4968920;28;20049;-74
2023/06/05 00:38:53;;;;;;;6.15;1.60;;;11.50;99.90;;;;;;4969820;28;20058;-73
2023/06/05 00:41:19;;;;;;;1.65;1.55;;;11.50;99.90;;;;;;4969363;28;20050;-75
2023/06/05 00:43:45;;;;;;;2.75;1.80;;;11.50;99.90;;;;;;4968906;28;20038;-75
2023/06/05 00:46:12;;;;;;;5.95;1.67;;;11.50;99.90;;;;;;4986835;28;20061;-73
2023/06/05 00:48:39;;;;;;;3.85;2.13;;;11.50;99.90;;;;;;4969440;28;20497;-73
2023/06/05 00:51:06;;;;;;;3.65;1.83;;;11.50;99.90;;;;;;4986532;28;20050;-73
2023/06/05 00:53:36;;;;;;;3.75;1.60;;;11.50;99.90;;;;;;4968679;28;20054;-72
2023/06/05 00:56:02;;;;;;;10.57;2.03;;;11.50;99.90;;;;;;4969162;28;20077;-73
2023/06/05 00:58:30;;;;;;;4.95;1.45;;;11.40;99.90;;;;;;4968851;28;20048;-74
2023/06/05 01:00:57;;;;;;;1.63;1.35;;;11.40;99.90;;;;;;4986915;28;20101;-74
2023/06/05 01:03:28;;;;;;;2.55;1.40;;;11.40;99.90;;;;;;4986732;28;20054;-74
2023/06/05 01:06:02;;;;;;;2.28;1.60;;;11.40;99.90;;;;;;4985636;28;20489;-75
2023/06/05 01:08:38;;;;;;;2.03;1.38;;;11.40;99.90;;;;;;4919279;28;20058;-73
2023/06/05 01:11:25;;;;;;;2.55;1.40;;;11.40;99.90;;;;;;4986082;28;20058;-74
2023/06/05 01:14:22;;;;;;;2.25;1.23;;;11.40;99.90;;;;;;4968007;28;20058;-74
2023/06/05 01:16:56;;;;;;;3.03;1.63;;;11.40;99.90;;;;;;4977143;28;20058;-73
2023/06/05 01:19:28;;;;;;;2.22;1.27;;;11.40;99.90;;;;;;4986221;28;20468;-73
2023/06/05 01:21:55;;;;;;;4.22;1.63;;;11.40;99.90;;;;;;4969622;28;20524;-71
2023/06/05 01:24:22;;;;;;;3.22;1.55;;;11.40;99.90;;;;;;4986541;28;20508;-74
2023/06/05 01:27:15;;;;;;;3.17;1.30;;;11.40;99.90;;;;;;4969056;28;20452;-74
2023/06/05 01:30:09;;;;;;;4.50;1.42;;;11.40;99.90;;;;;;4986676;28;20499;-74
2023/06/05 01:32:53;;;;;;;2.17;1.33;;;11.40;99.90;;;;;;4970984;28;20412;-73
2023/06/05 01:35:21;;;;;;;3.10;1.73;;;11.40;99.90;;;;;;4962548;28;20129;-73
2023/06/05 01:37:48;;;;;;;1.55;1.00;;;11.40;99.90;;;;;;4972914;28;20050;-75
2023/06/05 01:40:20;;;;;;;5.43;1.50;;;11.40;99.90;;;;;;4972572;28;20584;-71
2023/06/05 01:42:47;;;;;;;3.22;1.63;;;11.30;99.90;;;;;;4989771;28;20489;-74
2023/06/05 01:45:15;;;;;;;2.15;1.23;;;11.30;99.90;;;;;;4988548;28;20441;-74
2023/06/05 01:47:42;;;;;;;1.67;1.10;;;11.30;99.90;;;;;;4989806;28;20046;-74
2023/06/05 01:50:08;;;;;;;2.65;1.30;;;11.30;99.90;;;;;;4972270;28;20042;-74
2023/06/05 01:52:39;;;;;;;4.25;1.42;;;11.30;99.90;;;;;;4989393;28;20062;-73
2023/06/05 01:55:06;;;;;;;3.60;1.48;;;11.30;99.90;;;;;;4972158;28;20042;-72
2023/06/05 01:57:33;;;;;;;2.13;1.40;;;11.30;99.90;;;;;;4989391;28;20125;-75
2023/06/05 02:00:06;;;;;;;1.98;1.30;;;11.30;99.90;;;;;;4972019;28;20493;-75
2023/06/05 02:02:32;;;;;;;5.03;1.48;;;11.30;99.90;;;;;;4972005;28;20125;-74
2023/06/05 02:04:59;;;;;;;3.40;1.33;;;11.30;99.90;;;;;;4971755;28;20053;-74
2023/06/05 02:07:25;;;;;;;5.38;1.33;;;11.30;99.90;;;;;;4971459;28;20153;-74
2023/06/05 02:09:51;;;;;;;3.45;1.35;;;11.30;99.90;;;;;;4987995;28;20137;-73
2023/06/05 02:12:16;;;;;;;3.70;1.23;;;11.30;99.90;;;;;;4989814;28;20054;-72
2023/06/05 02:14:44;;;;;;;1.83;1.23;;;11.30;99.90;;;;;;4970997;28;20058;-74
2023/06/05 02:17:14;;;;;;;1.65;1.30;;;11.30;99.90;;;;;;4971732;28;20042;-74
2023/06/05 02:19:40;;;;;;;1.73;1.30;;;11.30;99.90;;;;;;4971528;28;20062;-74
2023/06/05 02:22:06;;;;;;;3.03;1.60;;;11.30;99.90;;;;;;4971969;28;20141;-74
2023/06/05 02:24:31;;;;;;;2.08;1.40;;;11.30;99.90;;;;;;4987334;28;20563;-73
2023/06/05 02:26:57;;;;;;;5.68;1.48;;;11.30;99.90;;;;;;4971333;28;20047;-74
2023/06/05 02:29:24;;;;;;;2.53;1.20;;;11.30;99.90;;;;;;4971505;28;20132;-74
2023/06/05 02:31:50;;;;;;;3.70;1.60;;;11.30;99.90;;;;;;4971519;28;20049;-74
2023/06/05 02:34:16;;;;;;;2.78;1.80;;;11.40;99.90;;;;;;4971577;28;20054;-74
2023/06/05 02:36:45;;;;;;;4.82;1.90;;;11.40;99.90;;;;;;4970402;28;20050;-73
2023/06/05 02:39:11;;;;;;;3.35;1.55;;;11.40;99.90;;;;;;4971555;28;20364;-73
2023/06/05 02:41:38;;;;;;;3.33;1.67;;;11.30;99.90;;;;;;4988413;28;20050;-74
2023/06/05 02:44:04;;;;;;;3.47;1.48;;;11.40;99.90;;;;;;4986750;28;20050;-74
2023/06/05 02:46:30;;;;;;;1.65;1.38;;;11.30;99.90;;;;;;4971114;28;20050;-75
2023/06/05 02:48:55;;;;;;;6.00;1.80;;;11.30;99.90;;;;;;4981711;28;20042;-74
2023/06/05 02:51:21;;;;;;;4.13;1.45;;;11.30;99.90;;;;;;4971020;28;20408;-75
2023/06/05 02:53:47;;;;;;;2.05;1.55;;;11.40;99.90;;;;;;4970938;28;20068;-74
2023/06/05 02:56:13;;;;;;;2.92;1.90;;;11.40;99.90;;;;;;4971211;28;20057;-75
2023/06/05 02:58:43;;;;;;;5.65;1.95;;;11.40;99.90;;;;;;4970222;28;20042;-74
2023/06/05 03:01:10;;;;;;;2.30;1.52;;;11.30;99.90;;;;;;4970787;28;20086;-74
2023/06/05 03:03:36;;;;;;;3.47;1.63;;;11.30;99.90;;;;;;4970386;28;20113;-74
2023/06/05 03:06:06;;;;;;;2.50;1.65;;;11.30;99.90;;;;;;4970869;28;20133;-75
2023/06/05 03:08:33;;;;;;;;;;;11.30;99.90;;;;;;4970656;28;20125;-75
2023/06/05 03:11:00;;;;;;;2.38;1.40;;;11.30;99.90;;;;;;4988283;28;19925;-75
2023/06/05 03:13:26;;;;;;;2.97;1.50;;;11.30;99.90;;;;;;4970812;28;20057;-75
2023/06/05 03:15:53;;;;;;;3.58;1.77;;;11.30;99.90;;;;;;4954091;28;20058;-73
2023/06/05 03:18:21;;;;;;;2.40;1.83;;;11.30;99.90;;;;;;4970660;28;20441;-73
2023/06/05 03:20:50;;;;;;;4.70;1.77;;;11.30;99.90;;;;;;4970317;28;20050;-74
2023/06/05 03:23:16;;;;;;;2.03;1.83;;;11.30;99.90;;;;;;4970468;28;20046;-75
2023/06/05 03:25:42;;;;;;;2.58;1.85;;;11.40;99.90;;;;;;4970427;28;20058;-74
2023/06/05 03:28:08;;;;;;;5.20;1.58;;;11.30;99.90;;;;;;4970492;28;20046;-74
2023/06/05 03:30:33;;;;;;;4.93;1.95;;;11.30;99.90;;;;;;4987369;28;20500;-75
2023/06/05 03:32:59;;;;;;;3.58;1.50;;;11.30;99.90;;;;;;4954561;28;20136;-74
2023/06/05 03:35:26;;;;;;;3.28;1.45;;;11.30;99.90;;;;;;4970151;28;20066;-75
2023/06/05 03:37:51;;;;;;;3.47;1.60;;;11.30;99.90;;;;;;4970005;28;20057;-74
2023/06/05 03:40:17;;;;;;;7.70;1.80;;;11.30;99.90;;;;;;4970257;28;20404;-75
2023/06/05 03:42:43;;;;;;;4.53;1.60;;;11.30;99.90;;;;;;4970173;28;20050;-74
2023/06/05 03:45:10;;;;;;;2.40;1.60;;;11.30;99.90;;;;;;4956427;28;20053;-75
2023/06/05 03:47:36;;;;;;;3.88;1.33;;;11.30;99.90;;;;;;4970022;28;20050;-74
2023/06/05 03:50:03;;;;;;;1.88;1.67;;;11.40;99.90;;;;;;4969611;28;20073;-75
2023/06/05 03:52:29;;;;;;;4.78;1.75;;;11.40;99.90;;;;;;4969782;28;20492;-73
2023/06/05 03:54:55;;;;;;;4.25;1.45;;;11.40;99.90;;;;;;4969267;28;20054;-73
2023/06/05 03:57:21;;;;;;;3.33;1.27;;;11.40;99.90;;;;;;4987838;28;20129;-73
2023/06/05 03:59:48;;;;;;;1.35;1.25;;;11.40;99.90;;;;;;4987281;28;20085;-73
2023/06/05 04:02:14;;;;;;;1.30;1.20;;;11.30;99.90;;;;;;4969463;28;20061;-72
2023/06/05 04:04:40;;;;;;;1.20;1.10;;;11.40;99.90;;;;;;4969796;28;20473;-73
2023/06/05 04:07:06;;;;;;;1.55;1.45;;;11.40;99.90;;;;;;4986361;28;20049;-72
2023/06/05 04:09:32;;;;;;;1.85;1.42;;;11.40;99.90;;;;;;4970066;28;20062;-75
2023/06/05 04:11:58;;;;;;;1.30;1.20;;;11.40;99.90;;;;;;4986959;28;20054;-74
2023/06/05 04:14:24;;;;;;;1.65;1.55;;;11.40;99.90;;;;;;4969625;28;20054;-74
2023/06/05 04:16:50;;;;;;;4.10;1.42;;;11.40;99.90;;;;;;4953141;28;20050;-72
2023/06/05 04:19:16;;;;;;;4.70;1.42;;;11.50;99.90;;;;;;4969814;28;20042;-74
2023/06/05 04:21:42;;;;;;;1.52;1.42;;;11.50;99.90;;;;;;4969258;28;20105;-74
2023/06/05 04:24:10;;;;;;;1.60;1.42;;;11.60;99.90;;;;;;4985833;28;20054;-72
2023/06/05 04:26:37;;;;;;;1.88;1.55;;;11.60;99.90;;;;;;4970325;28;20392;-73
2023/06/05 04:29:13;;;;;;;2.97;1.45;;;11.60;99.90;;;;;;4987319;28;20054;-74
2023/06/05 04:31:50;;;;;;;2.85;1.55;;;11.60;99.90;;;;;;4986459;28;20089;-73
2023/06/05 04:34:18;;;;;;;1.40;1.20;;;11.60;99.90;;;;;;4987380;28;20144;-74
2023/06/05 04:36:44;;;;;;;1.10;1.10;;;11.60;99.90;;;;;;4969339;28;20057;-73
2023/06/05 04:39:17;;;;;;;3.80;1.25;;;11.50;99.90;;;;;;4969961;28;20054;-73
2023/06/05 04:41:47;;;;;;;1.48;1.20;;;11.40;99.90;;;;;;4953716;28;20046;-74
2023/06/05 04:44:16;;;;;;;1.27;1.15;;;11.40;99.90;;;;;;4970181;28;20050;-72
2023/06/05 04:46:43;;;;;;;1.88;1.17;;;11.40;99.90;;;;;;4968725;28;20046;-73
2023/06/05 04:49:13;;;;;;;1.25;1.13;;;11.40;99.90;;;;;;4987470;28;20396;-74
2023/06/05 04:51:40;;;;;;;2.08;1.10;;;11.30;99.90;;;;;;4969087;28;20069;-72
2023/06/05 04:54:05;;;;;;;1.45;1.40;;;11.30;99.90;;;;;;4969010;28;20108;-74
2023/06/05 04:56:34;;;;;;;3.35;1.70;;;11.30;99.90;;;;;;4969616;28;20054;-73
2023/06/05 04:59:03;;;;;;;2.60;1.45;;;11.30;99.90;;;;;;4969537;28;20726;-73
2023/06/05 05:01:29;;;;;;;2.80;1.65;;;11.40;99.90;;;;;;4978382;28;20049;-74
2023/06/05 05:03:55;;;;;;;1.45;1.35;;;11.40;99.90;;;;;;4985908;28;20416;-73
2023/06/05 05:06:21;;;;;;;1.77;1.23;;;11.50;99.90;;;;;;4987716;28;20042;-72
2023/06/05 05:08:48;;;;;;;1.85;1.42;;;11.60;99.90;;;;;;4990318;28;20049;-74
2023/06/05 05:11:14;;;;;;;4.47;1.50;;;11.60;99.90;;;;;;4958996;28;20054;-74
2023/06/05 05:13:40;;;;;;;1.98;1.35;;;11.70;99.90;;;;;;4973441;28;20097;-74
2023/06/05 05:16:07;;;;;;;2.08;1.42;;;11.70;99.90;;;;;;4956376;28;20045;-74
2023/06/05 05:18:34;;;;;;;4.38;1.25;;;11.70;99.90;;;;;;4991180;28;20050;-72
2023/06/05 05:21:02;;;;;;;2.63;1.20;;;11.70;99.90;;;;;;4989990;28;20058;-73
2023/06/05 05:23:27;;;;;;;5.45;1.40;;;11.70;99.90;;;;;;4972733;28;20054;-72
2023/06/05 05:25:54;;;;;;;2.67;1.48;;;11.70;99.90;;;;;;4972222;28;20516;-74
2023/06/05 05:28:19;;;;;;;2.78;1.40;;;11.70;99.90;;;;;;4973113;28;20042;-73
2023/06/05 05:30:46;;;;;;;1.13;1.13;;;11.80;99.90;;;;;;4973379;28;20050;-74
2023/06/05 05:33:12;;;;;;;1.85;1.00;;;11.80;99.90;;;;;;4956106;28;20169;-73
2023/06/05 05:35:38;;;;;;;2.63;1.30;;;11.90;99.90;;;;;;4988769;28;20137;-74
2023/06/05 05:38:04;;;;;;;2.05;1.48;;;11.90;99.90;;;;;;4939893;28;20050;-73
2023/06/05 05:40:29;;;;;;;1.40;1.20;;;12.00;99.90;;;;;;4990210;28;20058;-72
2023/06/05 05:42:55;;;;;;;1.75;1.65;;;12.10;99.90;;;;;;4989552;28;20121;-71
2023/06/05 05:45:21;;;;;;;1.25;1.15;;;12.10;99.70;;;;;;4968971;28;20051;-73
2023/06/05 05:47:47;;;;;;;1.75;1.25;;;12.10;99.60;;;;;;4983609;28;20046;-73
2023/06/05 05:50:13;;;;;;;1.42;1.33;;;12.00;99.90;;;;;;4989836;28;20112;-75
2023/06/05 05:52:39;;;;;;;1.63;1.30;;;12.10;99.90;;;;;;4990239;28;20050;-73
2023/06/05 05:55:05;;;;;;;1.25;1.25;;;12.20;99.90;;;;;;4971179;28;20057;-75
2023/06/05 05:57:31;;;;;;;1.85;1.45;;;12.20;99.90;;;;;;4972050;28;20510;-74
2023/06/05 05:59:57;;;;;;;2.05;1.27;;;12.30;99.90;;;;;;4976112;28;20054;-73
2023/06/05 06:02:23;;;;;;;5.68;3.08;;;12.30;99.90;;;;;;4972111;28;20054;-74
2023/06/05 06:04:49;;;;;;;1.63;1.30;;;12.30;99.90;;;;;;4989632;28;20451;-73
2023/06/05 06:07:15;;;;;;;2.63;1.30;;;12.30;99.00;;;;;;4988127;28;20050;-73
2023/06/05 06:09:41;;;;;;;7.45;1.63;;;12.30;98.90;;;;;;4970746;28;20058;-73
2023/06/05 06:12:07;;;;;;;1.90;1.27;;;12.40;99.90;;;;;;4966842;28;20041;-71
2023/06/05 06:14:33;;;;;;;2.78;1.20;;;12.40;99.60;;;;;;4989466;28;20046;-73
2023/06/05 06:17:02;;;;;;;5.55;1.50;;;12.50;99.90;;;;;;4989024;28;20057;-75
2023/06/05 06:19:28;;;;;;;1.40;1.20;;;12.50;97.80;;;;;;4988008;28;20050;-73
2023/06/05 06:21:55;;;;;;;3.33;1.40;;;12.50;98.50;;;;;;4971624;28;20051;-73
2023/06/05 06:24:21;;;;;;;1.20;1.10;;;12.60;99.00;;;;;;4989277;28;20083;-73
2023/06/05 06:26:48;;;;;;;2.05;1.30;;;12.70;99.90;;;;;;4989684;28;20046;-71
2023/06/05 06:29:21;;;;;;;2.65;1.20;;;12.80;99.90;;;;;;4974019;28;20120;-73
2023/06/05 15:58:19;;;;;;;2.33;1.38;;;15.70;55.00;;;;;;4974583;23;20058;-73
2023/06/05 16:00:50;;;;;;;3.90;1.40;;;15.70;56.30;;;;;;4953186;28;20051;-71
2023/06/05 16:03:17;;;;;;;3.72;1.65;;;15.60;61.10;;;;;;4962299;28;20494;-72
2023/06/05 16:05:43;;;;;;;3.67;1.80;;;15.60;59.70;;;;;;4966306;28;20062;-71
2023/06/05 16:08:09;;;;;;;4.00;1.70;;;15.60;59.60;;;;;;4951008;28;20065;-71
2023/06/05 16:10:35;;;;;;;5.05;1.58;;;15.60;62.00;;;;;;4966623;28;20544;-71
2023/06/05 16:13:01;;;;;;;5.47;1.60;;;15.70;61.20;;;;;;4966503;28;20082;-73
2023/06/05 16:15:27;;;;;;;4.03;1.70;;;15.80;60.00;;;;;;4966981;28;20136;-71
2023/06/05 16:17:52;;;;;;;4.28;1.63;;;15.80;60.30;;;;;;4965830;28;20042;-71
2023/06/05 16:20:18;;;;;;;4.18;1.70;;;15.80;58.40;;;;;;4967603;28;20046;-71
2023/06/05 16:22:44;;;;;;;3.95;1.60;;;15.80;58.20;;;;;;4950653;28;20058;-72
2023/06/05 16:25:10;;;;;;;3.38;1.80;;;15.80;62.00;;;;;;4967016;28;20494;-73
2023/06/05 16:27:42;;;;;;;6.47;1.83;;;15.80;61.80;;;;;;4951934;28;20043;-74
2023/06/05 16:30:08;;;;;;;5.55;1.70;;;15.80;59.80;;;;;;4967158;28;20133;-74
2023/06/05 16:32:35;;;;;;;3.50;1.90;;;15.80;61.60;;;;;;4964930;28;20043;-73
2023/06/05 16:35:02;;;;;;;8.18;1.60;;;15.70;57.30;;;;;;4965512;28;20054;-74
2023/06/05 16:37:29;;;;;;;6.07;1.70;;;15.50;58.60;;;;;;4949135;28;20042;-74
2023/06/05 16:39:57;;;;;;;3.65;1.50;;;15.50;63.60;;;;;;4946107;28;20118;-74
2023/06/05 16:42:26;;;;;;;4.53;1.50;;;15.50;65.20;;;;;;4962970;28;20049;-75
2023/06/05 16:44:52;;;;;;;3.72;1.80;;;15.60;62.40;;;;;;4966092;28;20057;-73
2023/06/05 16:47:18;;;;;;;3.58;1.83;;;15.60;61.20;;;;;;4981984;28;20147;-73
2023/06/05 16:50:11;;;;;;;1.60;1.50;;;15.50;61.70;;;;;;4968992;28;20461;-74
2023/06/05 16:52:42;;;;;;;3.72;1.45;;;15.60;61.70;;;;;;4965005;28;20054;-73
2023/06/05 16:55:08;;;;;;;5.22;1.77;;;15.50;61.40;;;;;;4966451;28;20564;-74
2023/06/05 16:57:35;;;;;;;6.70;1.50;;;15.60;64.00;;;;;;4980885;28;20082;-74
2023/06/05 17:00:07;;;;;;;3.10;1.27;;;15.70;60.90;;;;;;4977640;28;20058;-72
2023/06/05 17:02:35;;;;;;;2.30;1.45;;;15.70;60.20;;;;;;4966582;28;20093;-72
2023/06/05 17:05:01;;;;;;;5.20;1.73;;;15.70;62.00;;;;;;4984634;28;20062;-72
2023/06/05 17:07:26;;;;;;;6.75;2.33;;;15.80;61.80;;;;;;4970208;28;20051;-72
2023/06/05 17:09:52;;;;;;;7.95;2.40;;;15.80;61.90;;;;;;4968696;28;20433;-73
2023/06/05 17:12:19;;;;;;;5.32;1.85;;;15.80;59.70;;;;;;4954576;28;20509;-72
2023/06/05 17:15:14;;;;;;;5.00;1.45;;;15.80;61.20;;;;;;4970057;28;20047;-71
2023/06/05 17:17:41;;;;;;;1.23;1.05;;;15.70;55.50;;;;;;4969515;28;20039;-71
2023/06/05 17:20:08;;;;;;;4.65;1.58;;;15.60;56.10;;;;;;4971309;28;20047;-71
2023/06/05 17:22:35;;;;;;;2.80;1.50;;;15.60;61.40;;;;;;4969921;28;20845;-74
2023/06/05 17:25:07;;;;;;;7.00;1.50;;;15.60;60.40;;;;;;4970836;28;20039;-74
2023/06/05 17:27:33;;;;;;;6.07;1.60;;;15.60;58.60;;;;;;4969449;28;20128;-75
2023/06/05 17:29:59;;;;;;;5.32;1.50;;;15.60;54.20;;;;;;4968966;28;20043;-74
2023/06/05 17:32:25;;;;;;;3.45;1.52;;;15.60;56.40;;;;;;4970591;28;20055;-75
2023/06/05 17:34:50;;;;;;;6.25;1.63;;;15.60;56.40;;;;;;4984181;28;20070;-74
2023/06/05 17:37:17;;;;;;;2.42;1.38;;;15.50;52.70;;;;;;4971589;28;20501;-74
2023/06/05 17:39:43;;;;;;;3.97;1.65;;;15.50;50.70;;;;;;4969372;28;20046;-75
2023/06/05 17:42:10;;;;;;;5.97;2.08;;;15.40;55.40;;;;;;4955153;28;20054;-74
2023/06/05 17:44:36;;;;;;;3.10;1.80;;;15.40;56.50;;;;;;4953212;28;20050;-74
2023/06/05 17:47:02;;;;;;;3.70;1.42;;;15.40;56.40;;;;;;4970398;28;20058;-74
2023/06/05 17:49:28;;;;;;;2.58;1.38;;;15.30;54.10;;;;;;4969178;28;20055;-74
2023/06/05 17:56:04;;;;;;;5.80;1.50;;;15.20;55.70;;;;;;5010090;23;20185;-74
2023/06/05 17:58:30;;;;;;;5.82;1.75;;;15.00;61.20;;;;;;4971167;28;20046;-74
2023/06/05 18:00:56;;;;;;;6.55;2.03;;;15.00;61.30;;;;;;4952456;28;20041;-73
2023/06/05 18:03:24;;;;;;;2.47;1.63;;;15.00;58.60;;;;;;4986385;28;20472;-75
2023/06/05 18:05:50;;;;;;;4.00;1.42;;;14.90;58.60;;;;;;4970561;28;20070;-75
2023/06/05 18:08:16;;;;;;;5.13;1.50;;;14.90;57.90;;;;;;4971201;28;20134;-74
2023/06/05 18:11:06;;;;;;;5.30;1.48;;;14.80;58.00;;;;;;4962058;28;20129;-74
2023/06/05 18:13:32;;;;;;;5.68;1.60;;;14.80;60.80;;;;;;4943876;28;20052;-74
2023/06/05 18:15:58;;;;;;;2.63;1.23;;;14.70;60.10;;;;;;4952955;28;20053;-74
2023/06/05 18:18:24;;;;;;;3.67;1.50;;;14.70;60.70;;;;;;4952033;29;20081;-74
2023/06/05 18:20:50;;;;;;;5.28;1.77;;;14.60;58.20;;;;;;4962164;28;20079;-75
2023/06/05 18:23:36;;;;;;;2.00;1.42;;;14.50;60.90;;;;;;4970324;28;20527;-74
2023/06/05 18:26:02;;;;;;;4.90;1.48;;;14.30;64.00;;;;;;4956007;28;20050;-74
2023/06/05 18:28:28;;;;;;;6.63;1.80;;;14.20;59.50;;;;;;4973669;28;20179;-75
2023/06/05 18:30:54;;;;;;;4.38;1.67;;;14.00;65.90;;;;;;4951799;28;20062;-74
2023/06/05 18:33:20;;;;;;;3.90;1.20;;;14.00;72.00;;;;;;4960599;28;20039;-74
2023/06/05 18:35:47;;;;;;;6.25;2.00;;;13.80;68.30;;;;;;4961846;28;20047;-74
2023/06/05 18:38:17;;;;;;;4.95;1.27;;;13.80;71.40;;;;;;4983562;28;20690;-73
2023/06/05 18:40:43;;;;;;;4.85;1.58;;;13.70;72.70;;;;;;4954621;28;20141;-73
2023/06/05 18:43:09;;;;;;;3.05;1.40;;;13.60;75.10;;;;;;4961013;28;20308;-74
2023/06/05 18:45:35;;;;;;;7.22;1.70;;;13.60;80.30;;;;;;4950804;28;20126;-72
2023/06/05 18:48:04;;;;;;;1.92;1.50;;;13.60;79.40;;;;;;4952590;28;20050;-73
2023/06/05 18:50:31;;;;;;;3.83;1.33;;;13.50;75.70;;;;;;4937004;28;20050;-74
2023/06/05 18:52:57;;;;;;;2.53;1.50;;;13.60;82.40;;;;;;4953003;28;20046;-73
2023/06/05 18:55:24;;;;;;;4.70;1.65;;;13.50;82.50;;;;;;4961109;28;20062;-75
2023/06/05 18:57:50;;;;;;;2.45;1.40;;;13.50;84.30;;;;;;4920732;28;20054;-73
2023/06/05 19:00:17;;;;;;;4.47;1.67;;;13.40;84.10;;;;;;4963586;28;20583;-73
2023/06/05 19:03:06;;;;;;;3.90;1.90;;;13.40;88.50;;;;;;4952246;28;20043;-73
2023/06/05 19:05:32;;;;;;;3.47;1.35;;;13.30;87.40;;;;;;4951057;28;20047;-73
2023/06/05 19:07:58;;;;;;;2.50;1.42;;;13.30;88.60;;;;;;4951402;28;20061;-73
2023/06/05 19:10:24;;;;;;;2.97;1.30;;;13.20;90.60;;;;;;4952328;28;20058;-75
2023/06/05 19:12:50;;;;;;;3.75;1.48;;;13.10;91.30;;;;;;4955278;28;20043;-74
2023/06/05 19:15:18;;;;;;;4.65;1.63;;;13.00;91.90;;;;;;4952829;28;20089;-74
2023/06/05 19:17:45;;;;;;;2.45;1.83;;;13.00;93.50;;;;;;4949663;28;20057;-75
2023/06/05 19:20:26;;;;;;;5.88;1.75;;;12.90;94.40;;;;;;4930570;28;20089;-74
2023/06/05 19:22:54;;;;;;;1.50;1.23;;;12.90;96.10;;;;;;4951774;28;20448;-73
2023/06/05 19:25:20;;;;;;;4.82;1.77;;;12.90;96.30;;;;;;4972986;28;20142;-74
2023/06/05 19:27:46;;;;;;;3.25;1.60;;;12.80;95.80;;;;;;4953655;28;20619;-73
2023/06/05 19:30:17;;;;;;;6.20;1.75;;;12.80;97.10;;;;;;4956789;28;20118;-73
2023/06/05 19:32:45;;;;;;;4.05;1.40;;;12.60;98.70;;;;;;4948570;28;20050;-73
2023/06/05 19:35:11;;;;;;;5.90;2.05;;;12.50;99.90;;;;;;4950775;28;20049;-72
2023/06/05 19:37:37;;;;;;;2.92;1.67;;;12.50;99.90;;;;;;4946547;28;20158;-73
2023/06/05 19:40:04;;;;;;;3.28;1.80;;;12.50;99.90;;;;;;4935057;28;20058;-73
2023/06/05 19:42:31;;;;;;;3.63;1.63;;;12.40;99.90;;;;;;4951070;28;20046;-74
2023/06/05 19:44:57;;;;;;;5.72;1.73;;;12.40;99.90;;;;;;4949585;28;20085;-73
2023/06/05 19:47:23;;;;;;;5.80;1.52;;;12.30;99.90;;;;;;4933113;28;20066;-73
2023/06/05 19:50:12;;;;;;;3.28;1.65;;;12.30;99.90;;;;;;4949850;28;20047;-73
2023/06/05 19:52:38;;;;;;;4.57;2.13;;;12.20;99.90;;;;;;4948324;28;20178;-73
2023/06/05 19:55:06;;;;;;;5.20;1.60;;;12.20;99.90;;;;;;4956976;28;20508;-73
2023/06/05 19:57:32;;;;;;;3.90;1.80;;;12.20;99.90;;;;;;4981616;28;20059;-73
2023/06/05 19:59:57;;;;;;;5.00;1.98;;;12.10;99.90;;;;;;4966894;28;20104;-75
2023/06/05 20:02:23;;;;;;;8.27;1.80;;;12.10;99.90;;;;;;4967391;28;20050;-74
2023/06/05 20:04:49;;;;;;;4.20;1.83;;;12.10;99.90;;;;;;4952404;28;20042;-73
2023/06/05 20:07:15;;;;;;;5.32;2.40;;;12.00;99.90;;;;;;4985598;28;20053;-74
2023/06/05 20:09:41;;;;;;;6.25;2.17;;;12.00;99.90;;;;;;4968195;28;20054;-74
2023/06/05 20:12:07;;;;;;;4.85;1.95;;;12.00;99.90;;;;;;4968386;28;20435;-75
2023/06/05 20:14:34;;;;;;;4.88;2.33;;;12.00;99.90;;;;;;4862642;28;20058;-73
2023/06/05 20:16:59;;;;;;;2.95;1.92;;;11.90;99.90;;;;;;4960704;28;20393;-75
2023/06/05 20:19:25;;;;;;;3.72;1.73;;;11.90;99.90;;;;;;4932695;28;20050;-77
2023/06/05 20:21:52;;;;;;;4.68;1.98;;;11.90;99.90;;;;;;4932693;28;20038;-74
2023/06/05 20:24:17;;;;;;;2.45;1.60;;;11.90;99.90;;;;;;4964925;28;20077;-74
2023/06/05 20:26:44;;;;;;;2.60;1.65;;;11.80;99.90;;;;;;4934218;28;20043;-75
2023/06/05 20:29:14;;;;;;;6.75;2.50;;;11.80;99.90;;;;;;4948202;28;20058;-74
2023/06/05 20:31:40;;;;;;;8.02;2.30;;;11.80;99.90;;;;;;4950008;28;20165;-74
2023/06/05 20:34:05;;;;;;;4.60;2.00;;;11.80;99.90;;;;;;4949159;28;20081;-73
2023/06/05 20:36:34;;;;;;;5.80;2.00;;;11.80;99.90;;;;;;4951118;28;20051;-73
2023/06/05 20:39:00;;;;;;;4.85;1.92;;;11.80;99.90;;;;;;4954718;28;20090;-75
2023/06/05 20:41:28;;;;;;;8.07;1.77;;;11.80;99.90;;;;;;4937412;28;20050;-74
2023/06/05 20:43:54;;;;;;;7.25;2.28;;;11.80;99.90;;;;;;4954426;28;20517;-74
2023/06/05 20:46:22;;;;;;;5.50;2.00;;;11.70;99.90;;;;;;4952529;28;20126;-75
2023/06/05 20:48:50;;;;;;;3.80;1.90;;;11.70;99.90;;;;;;4936487;28;20038;-75
2023/06/05 20:51:20;;;;;;;7.85;1.73;;;11.70;99.90;;;;;;4952091;28;20042;-74
2023/06/05 20:53:50;;;;;;;11.10;2.20;;;11.70;99.90;;;;;;4957790;28;20134;-73
2023/06/05 20:56:27;;;;;;;2.97;1.60;;;11.70;99.90;;;;;;4924695;29;20051;-73
2023/06/05 20:58:56;;;;;;;4.97;1.85;;;11.70;99.90;;;;;;4950173;28;20110;-74
2023/06/05 21:01:22;;;;;;;6.90;2.00;;;11.70;99.90;;;;;;4915900;29;20049;-73
2023/06/05 21:03:48;;;;;;;2.17;1.55;;;11.60;99.90;;;;;;4931593;29;20051;-73
2023/06/05 21:06:14;;;;;;;7.90;1.98;;;11.60;99.90;;;;;;4901362;28;20520;-74
2023/06/05 21:08:40;;;;;;;4.20;1.85;;;11.60;99.90;;;;;;4934422;29;20062;-75
2023/06/05 21:11:06;;;;;;;6.07;2.38;;;11.60;99.90;;;;;;4939255;29;20421;-73
2023/06/05 21:13:32;;;;;;;7.25;2.58;;;11.60;99.90;;;;;;4951588;28;20047;-73
2023/06/05 21:15:57;;;;;;;3.70;1.73;;;11.60;99.90;;;;;;4937961;29;20101;-73
2023/06/05 21:18:23;;;;;;;6.30;2.40;;;11.60;99.90;;;;;;4934580;29;20451;-73
2023/06/05 21:20:49;;;;;;;7.43;2.25;;;11.50;99.90;;;;;;4938836;29;20047;-73
2023/06/05 21:23:15;;;;;;;7.15;1.98;;;11.50;99.90;;;;;;4952687;28;20795;-75
2023/06/05 21:25:40;;;;;;;3.28;1.75;;;11.50;99.90;;;;;;4935366;29;20394;-74
2023/06/05 21:28:06;;;;;;;7.88;2.03;;;11.60;99.90;;;;;;4934994;29;20091;-75
2023/06/05 21:30:33;;;;;;;3.72;1.85;;;11.50;99.90;;;;;;4959454;28;20080;-73
2023/06/05 21:32:59;;;;;;;2.17;1.60;;;11.50;99.90;;;;;;4918077;29;20338;-73
2023/06/05 21:35:27;;;;;;;7.45;2.05;;;11.50;99.90;;;;;;4932533;29;20051;-73
2023/06/05 21:37:53;;;;;;;8.38;2.25;;;11.50;99.90;;;;;;4929097;29;20043;-73
2023/06/05 21:40:19;;;;;;;4.95;1.90;;;11.50;99.90;;;;;;4934411;29;20051;-73
2023/06/05 21:42:46;;;;;;;5.40;1.80;;;11.50;99.90;;;;;;4962036;28;20097;-75
2023/06/05 21:45:11;;;;;;;3.78;1.80;;;11.50;99.90;;;;;;4948861;28;20138;-73
2023/06/05 21:47:37;;;;;;;5.60;2.10;;;11.50;99.90;;;;;;4956432;28;20573;-73
2023/06/05 21:50:03;;;;;;;6.38;1.60;;;11.50;99.90;;;;;;4917064;29;20406;-74
2023/06/05 21:52:29;;;;;;;4.50;2.00;;;11.50;99.90;;;;;;4917691;28;20310;-73
2023/06/05 21:54:56;;;;;;;2.08;1.58;;;11.50;99.90;;;;;;4955287;28;20064;-73
2023/06/05 21:57:22;;;;;;;4.22;1.85;;;11.50;99.90;;;;;;4952676;28;20065;-73
2023/06/05 21:59:47;;;;;;;5.75;2.00;;;11.50;99.90;;;;;;4951640;28;20413;-74
2023/06/05 22:02:13;;;;;;;8.98;2.10;;;11.50;99.90;;;;;;4935722;28;20050;-73
2023/06/05 22:04:39;;;;;;;5.47;2.30;;;11.40;99.90;;;;;;4935592;28;20049;-73
2023/06/05 22:07:05;;;;;;;4.70;1.92;;;11.40;99.90;;;;;;4937261;28;20042;-73
2023/06/05 22:09:31;;;;;;;3.05;1.70;;;11.40;99.90;;;;;;4969206;28;20058;-73
2023/06/05 22:11:58;;;;;;;8.15;2.33;;;11.40;99.90;;;;;;4936343;28;20054;-74
2023/06/05 22:14:28;;;;;;;4.15;1.75;;;11.40;99.90;;;;;;4937369;28;20073;-74
2023/06/05 22:16:56;;;;;;;4.10;2.13;;;11.40;99.90;;;;;;4951247;28;20436;-73
2023/06/05 22:19:23;;;;;;;2.45;1.70;;;11.40;99.90;;;;;;4953012;28;20046;-73
2023/06/05 22:21:50;;;;;;;5.43;2.45;;;11.40;99.90;;;;;;4936528;28;20069;-73